createdAt,value
2022-10-25T00:01:30.695Z,100123.00
2022-10-25T00:04:00.596Z,100123.60
2022-10-25T00:06:30.112Z,100123.80
2022-10-25T00:08:59.531Z,100120.00
2022-10-25T00:11:32.124Z,100125.80
2022-10-25T00:14:05.973Z,100124.60
2022-10-25T00:16:38.492Z,100122.80
2022-10-25T00:19:08.185Z,100130.80
2022-10-25T00:21:37.759Z,100135.20
2022-10-25T00:24:10.975Z,100133.20
2022-10-25T00:26:41.049Z,100134.20
2022-10-25T00:29:11.776Z,100134.80
2022-10-25T00:31:41.225Z,100123.40
2022-10-25T00:34:11.049Z,100127.00
2022-10-25T00:36:40.602Z,100127.60
2022-10-25T00:39:10.315Z,100135.40
2022-10-25T00:41:39.965Z,100133.40
2022-10-25T00:44:50.386Z,100128.20
2022-10-25T00:47:47.921Z,100126.00
2022-10-25T00:50:50.452Z,100134.00
2022-10-25T00:53:26.851Z,100136.40
2022-10-25T00:56:05.128Z,100141.80
2022-10-25T00:58:38.903Z,100136.20
2022-10-25T01:01:10.974Z,100139.00
2022-10-25T01:03:43.235Z,100141.20
2022-10-25T01:06:21.578Z,100139.20
2022-10-25T01:08:53.837Z,100133.60
2022-10-25T01:11:24.090Z,100133.40
2022-10-25T01:13:54.797Z,100134.20
2022-10-25T01:16:35.744Z,100134.60
2022-10-25T01:19:40.026Z,100140.80
2022-10-25T01:22:15.749Z,100138.60
2022-10-25T01:25:17.629Z,100138.00
2022-10-25T01:28:03.863Z,100132.40
2022-10-25T01:31:14.786Z,100129.60
2022-10-25T01:33:55.389Z,100130.40
2022-10-25T01:36:42.541Z,100128.60
2022-10-25T01:39:20.785Z,100132.00
2022-10-25T01:42:05.801Z,100123.80
2022-10-25T01:45:04.672Z,100127.20
2022-10-25T01:47:41.642Z,100133.40
2022-10-25T01:50:24.624Z,100136.20
2022-10-25T01:55:33.099Z,100140.60
2022-10-25T01:58:17.172Z,100140.20
2022-10-25T02:00:59.314Z,100142.00
2022-10-25T02:03:36.168Z,100145.80
2022-10-25T02:06:25.415Z,100146.00
2022-10-25T02:09:06.857Z,100143.00
2022-10-25T02:11:38.106Z,100136.60
2022-10-25T02:14:24.010Z,100140.00
2022-10-25T02:17:01.769Z,100143.00
2022-10-25T02:19:35.669Z,100144.60
2022-10-25T02:22:09.311Z,100148.80
2022-10-25T02:24:42.870Z,100147.40
2022-10-25T02:27:14.266Z,100149.60
2022-10-25T02:29:46.328Z,100152.00
2022-10-25T02:32:15.898Z,100151.00
2022-10-25T02:34:48.282Z,100153.80
2022-10-25T02:37:18.111Z,100148.40
2022-10-25T02:39:50.282Z,100148.80
2022-10-25T02:42:19.890Z,100148.80
2022-10-25T02:44:49.406Z,100147.60
2022-10-25T02:47:18.940Z,100148.60
2022-10-25T02:49:48.348Z,100150.80
2022-10-25T02:52:18.010Z,100149.80
2022-10-25T02:54:47.395Z,100151.20
2022-10-25T02:57:16.844Z,100158.60
2022-10-25T02:59:46.357Z,100158.40
2022-10-25T03:02:15.767Z,100151.80
2022-10-25T03:04:45.144Z,100155.20
2022-10-25T03:07:14.810Z,100154.40
2022-10-25T03:09:44.203Z,100159.00
2022-10-25T03:12:13.707Z,100159.80
2022-10-25T03:14:43.192Z,100161.00
2022-10-25T03:17:12.782Z,100158.00
2022-10-25T03:19:42.416Z,100162.40
2022-10-25T03:22:12.172Z,100157.60
2022-10-25T03:24:41.724Z,100160.80
2022-10-25T03:27:11.153Z,100159.40
2022-10-25T03:29:40.689Z,100158.80
2022-10-25T03:32:10.453Z,100156.40
2022-10-25T03:34:40.042Z,100157.00
2022-10-25T03:37:09.613Z,100157.00
2022-10-25T03:39:39.189Z,100156.20
2022-10-25T03:42:08.671Z,100155.40
2022-10-25T03:44:38.241Z,100154.60
2022-10-25T03:47:07.814Z,100149.80
2022-10-25T03:49:37.533Z,100150.00
2022-10-25T03:52:07.448Z,100151.20
2022-10-25T03:54:37.346Z,100151.00
2022-10-25T03:57:07.029Z,100148.60
2022-10-25T03:59:36.731Z,100144.20
2022-10-25T04:02:06.458Z,100140.40
2022-10-25T04:04:36.036Z,100140.80
2022-10-25T04:07:06.220Z,100146.20
2022-10-25T04:09:35.681Z,100153.80
2022-10-25T04:12:05.928Z,100156.00
2022-10-25T04:14:35.625Z,100162.80
2022-10-25T04:17:05.049Z,100168.40
2022-10-25T04:19:34.717Z,100168.40
2022-10-25T04:22:04.338Z,100168.20
2022-10-25T04:24:33.784Z,100169.60
2022-10-25T04:27:03.380Z,100168.40
2022-10-25T04:29:32.819Z,100167.60
2022-10-25T04:32:02.420Z,100161.80
2022-10-25T04:34:32.028Z,100166.40
2022-10-25T04:37:01.637Z,100162.80
2022-10-25T04:39:31.005Z,100166.40
2022-10-25T04:42:00.659Z,100161.60
2022-10-25T04:44:30.119Z,100161.60
2022-10-25T04:46:59.622Z,100170.20
2022-10-25T04:49:29.374Z,100174.20
2022-10-25T04:51:59.744Z,100171.60
2022-10-25T04:54:29.600Z,100172.80
2022-10-25T04:56:59.904Z,100172.20
2022-10-25T04:59:29.502Z,100165.40
2022-10-25T05:01:59.096Z,100169.60
2022-10-25T05:04:28.584Z,100170.80
2022-10-25T05:06:58.240Z,100171.00
2022-10-25T05:09:27.795Z,100170.80
2022-10-25T05:11:57.196Z,100179.00
2022-10-25T05:14:26.679Z,100175.80
2022-10-25T05:16:56.187Z,100179.20
2022-10-25T05:19:25.627Z,100179.80
2022-10-25T05:21:55.358Z,100178.80
2022-10-25T05:24:25.110Z,100183.00
2022-10-25T05:26:54.661Z,100187.60
2022-10-25T05:29:24.060Z,100192.60
2022-10-25T05:31:53.475Z,100191.60
2022-10-25T05:34:23.311Z,100189.40
2022-10-25T05:36:52.814Z,100192.60
2022-10-25T05:39:22.359Z,100197.00
2022-10-25T05:41:52.422Z,100201.60
2022-10-25T05:44:21.951Z,100201.80
2022-10-25T05:46:52.421Z,100200.60
2022-10-25T05:49:22.013Z,100200.40
2022-10-25T05:51:51.730Z,100198.00
2022-10-25T05:54:22.925Z,100199.60
2022-10-25T05:56:52.466Z,100206.40
2022-10-25T05:59:21.951Z,100205.20
2022-10-25T06:01:51.909Z,100204.00
2022-10-25T06:04:22.280Z,100204.40
2022-10-25T06:06:52.500Z,100204.00
2022-10-25T06:09:22.188Z,100218.40
2022-10-25T06:11:51.869Z,100222.00
2022-10-25T06:14:21.678Z,100221.60
2022-10-25T06:16:51.097Z,100225.80
2022-10-25T06:19:20.959Z,100230.80
2022-10-25T06:21:50.932Z,100239.80
2022-10-25T06:24:20.881Z,100236.80
2022-10-25T06:26:51.594Z,100241.80
2022-10-25T06:29:21.221Z,100245.00
2022-10-25T06:31:51.100Z,100245.00
2022-10-25T06:34:21.833Z,100250.00
2022-10-25T06:36:51.988Z,100255.80
2022-10-25T06:39:21.663Z,100255.00
2022-10-25T06:58:38.052Z,100257.80
2022-10-25T07:01:15.883Z,100259.20
2022-10-25T07:03:50.779Z,100265.20
2022-10-25T07:06:29.985Z,100260.00
2022-10-25T07:09:05.421Z,100256.20
2022-10-25T07:11:41.237Z,100254.00
2022-10-25T07:14:14.808Z,100253.00
2022-10-25T07:16:48.742Z,100249.20
2022-10-25T07:19:24.871Z,100251.80
2022-10-25T07:21:59.661Z,100251.20
2022-10-25T07:24:33.834Z,100246.80
2022-10-25T07:27:07.526Z,100250.00
2022-10-25T07:29:41.894Z,100252.20
2022-10-25T07:32:16.224Z,100256.80
2022-10-25T07:34:49.939Z,100261.80
2022-10-25T07:37:23.870Z,100256.40
2022-10-25T07:39:57.760Z,100252.80
2022-10-25T07:42:31.396Z,100258.80
2022-10-25T07:45:05.503Z,100256.80
2022-10-25T07:47:39.357Z,100253.80
2022-10-25T07:50:15.211Z,100255.60
2022-10-25T07:52:50.482Z,100250.60
2022-10-25T07:55:25.008Z,100247.00
2022-10-25T07:58:05.217Z,100251.60
2022-10-25T08:00:39.801Z,100252.00
2022-10-25T08:03:13.742Z,100256.00
2022-10-25T08:05:51.423Z,100257.40
2022-10-25T08:08:25.511Z,100256.40
2022-10-25T08:11:03.512Z,100256.20
2022-10-25T08:13:37.842Z,100255.00
2022-10-25T08:16:12.691Z,100258.20
2022-10-25T08:18:47.227Z,100254.40
2022-10-25T08:21:21.431Z,100249.80
2022-10-25T08:23:55.701Z,100251.20
2022-10-25T08:26:34.404Z,100251.20
2022-10-25T08:30:04.234Z,100255.20
2022-10-25T08:32:40.071Z,100256.00
2022-10-25T08:35:15.728Z,100250.60
2022-10-25T08:37:49.940Z,100249.20
2022-10-25T08:40:38.300Z,100253.00
2022-10-25T08:43:31.279Z,100250.40
2022-10-25T08:46:11.675Z,100251.80
2022-10-25T08:48:52.235Z,100246.60
2022-10-25T08:51:37.093Z,100245.40
2022-10-25T08:54:26.514Z,100248.60
2022-10-25T08:57:16.443Z,100248.40
2022-10-25T08:59:57.086Z,100242.20
2022-10-25T09:02:42.005Z,100243.00
2022-10-25T09:05:32.211Z,100248.00
2022-10-25T09:08:27.269Z,100244.80
2022-10-25T09:11:16.918Z,100246.00
2022-10-25T09:14:00.801Z,100249.00
2022-10-25T09:16:43.472Z,100248.40
2022-10-25T09:19:25.162Z,100249.00
2022-10-25T09:22:03.984Z,100250.80
2022-10-25T09:24:57.728Z,100242.40
2022-10-25T09:27:45.320Z,100245.60
2022-10-25T09:30:20.087Z,100247.20
2022-10-25T09:32:58.467Z,100255.00
2022-10-25T09:35:43.026Z,100256.20
2022-10-25T09:38:26.068Z,100254.20
2022-10-25T09:41:07.224Z,100259.00
2022-10-25T09:43:50.366Z,100259.40
2022-10-25T09:46:36.494Z,100259.80
2022-10-25T09:49:26.259Z,100252.60
2022-10-25T09:52:14.944Z,100257.00
2022-10-25T09:55:01.412Z,100260.40
2022-10-25T09:57:35.709Z,100259.60
2022-10-25T10:00:15.998Z,100262.80
2022-10-25T10:02:50.709Z,100264.60
2022-10-25T10:05:26.044Z,100263.60
2022-10-25T10:08:00.298Z,100259.00
2022-10-25T10:10:42.169Z,100262.20
2022-10-25T10:13:39.597Z,100258.80
2022-10-25T10:16:25.817Z,100259.80
2022-10-25T10:19:21.189Z,100259.60
2022-10-25T10:22:02.613Z,100260.60
2022-10-25T10:24:40.399Z,100255.40
2022-10-25T10:27:27.602Z,100253.60
2022-10-25T10:30:07.969Z,100256.20
2022-10-25T10:32:44.901Z,100252.40
2022-10-25T10:35:34.815Z,100253.40
2022-10-25T10:38:29.222Z,100246.00
2022-10-25T10:44:17.159Z,100254.20
2022-10-25T10:46:51.593Z,100256.40
2022-10-25T10:49:34.952Z,100263.20
2022-10-25T10:52:37.703Z,100264.20
2022-10-25T10:55:27.662Z,100268.80
2022-10-25T10:58:16.510Z,100269.00
2022-10-25T11:01:05.131Z,100271.20
2022-10-25T11:04:00.129Z,100270.80
2022-10-25T11:06:39.043Z,100266.80
2022-10-25T11:09:23.894Z,100265.40
2022-10-25T11:12:15.831Z,100270.00
2022-10-25T11:14:50.231Z,100271.00
2022-10-25T11:17:34.204Z,100264.40
2022-10-25T11:20:26.458Z,100269.20
2022-10-25T11:23:13.175Z,100270.80
2022-10-25T11:25:59.405Z,100263.40
2022-10-25T11:28:54.054Z,100266.00
2022-10-25T11:31:49.708Z,100268.00
2022-10-25T11:34:37.013Z,100263.80
2022-10-25T11:37:28.226Z,100263.60
2022-10-25T11:40:14.610Z,100261.60
2022-10-25T11:43:10.738Z,100263.60
2022-10-25T11:45:48.708Z,100263.00
2022-10-25T11:48:52.780Z,100254.20
2022-10-25T11:51:40.302Z,100266.60
2022-10-25T11:54:35.821Z,100263.80
2022-10-25T11:57:29.379Z,100262.40
2022-10-25T12:00:16.465Z,100263.40
2022-10-25T12:03:21.873Z,100259.40
2022-10-25T12:06:07.547Z,100261.40
2022-10-25T12:09:00.528Z,100260.80
2022-10-25T12:11:39.698Z,100256.20
2022-10-25T12:14:21.188Z,100257.20
2022-10-25T12:16:57.031Z,100258.80
2022-10-25T12:19:37.247Z,100264.00
2022-10-25T12:22:23.152Z,100267.20
2022-10-25T12:25:03.763Z,100271.20
2022-10-25T12:27:41.785Z,100258.80
2022-10-25T12:30:21.090Z,100258.20
2022-10-25T12:33:01.445Z,100262.60
2022-10-25T12:35:45.060Z,100256.80
2022-10-25T12:38:32.136Z,100255.40
2022-10-25T12:41:16.287Z,100252.60
2022-10-25T12:44:08.724Z,100254.00
2022-10-25T12:47:18.571Z,100256.00
2022-10-25T12:50:10.292Z,100262.60
2022-10-25T12:53:01.832Z,100269.40
2022-10-25T12:55:59.897Z,100280.60
2022-10-25T13:01:51.705Z,100281.20
2022-10-25T13:05:10.610Z,100279.20
2022-10-25T13:07:48.296Z,100291.00
2022-10-25T13:13:19.485Z,100292.20
2022-10-25T13:16:00.167Z,100297.80
2022-10-25T13:18:46.438Z,100296.40
2022-10-25T13:22:12.005Z,100297.00
2022-10-25T13:24:49.161Z,100309.20
2022-10-25T13:27:26.721Z,100309.40
2022-10-25T13:30:32.474Z,100310.40
2022-10-25T13:33:38.381Z,100308.20
2022-10-25T13:36:13.178Z,100304.40
2022-10-25T13:38:47.750Z,100301.80
2022-10-25T13:41:24.984Z,100300.40
2022-10-25T13:44:08.373Z,100299.60
2022-10-25T13:46:44.436Z,100311.00
2022-10-25T13:49:41.875Z,100314.40
2022-10-25T13:52:32.148Z,100309.60
2022-10-25T13:55:17.413Z,100318.00
2022-10-25T13:57:59.350Z,100321.40
2022-10-25T14:00:41.935Z,100320.20
2022-10-25T14:03:47.587Z,100319.60
2022-10-25T14:06:31.491Z,100322.60
2022-10-25T14:09:27.019Z,100329.80
2022-10-25T14:12:20.233Z,100334.40
2022-10-25T14:15:09.064Z,100337.60
2022-10-25T14:17:46.674Z,100344.20
2022-10-25T14:20:29.686Z,100346.60
2022-10-25T14:23:07.869Z,100347.40
2022-10-25T14:25:44.349Z,100351.80
2022-10-25T14:28:22.900Z,100350.20
2022-10-25T14:31:00.129Z,100350.40
2022-10-25T14:33:40.834Z,100359.80
2022-10-25T14:36:32.724Z,100359.60
2022-10-25T14:39:19.094Z,100358.00
2022-10-25T14:41:59.146Z,100358.40
2022-10-25T14:44:49.035Z,100354.60
2022-10-25T14:47:34.425Z,100353.00
2022-10-25T14:50:13.353Z,100352.20
2022-10-25T14:52:50.669Z,100353.20
2022-10-25T14:55:31.623Z,100353.60
2022-10-25T14:58:11.398Z,100352.00
2022-10-25T15:00:55.614Z,100346.00
2022-10-25T15:03:32.694Z,100345.40
2022-10-25T15:06:10.103Z,100349.20
2022-10-25T15:08:51.947Z,100345.40
2022-10-25T15:11:29.005Z,100349.00
2022-10-25T15:14:21.730Z,100347.80
2022-10-25T15:17:07.267Z,100350.80
2022-10-25T15:20:02.289Z,100358.80
2022-10-25T15:22:47.375Z,100365.40
2022-10-25T15:25:35.984Z,100363.60
2022-10-25T15:28:19.941Z,100364.80
2022-10-25T15:31:07.446Z,100368.00
2022-10-25T15:33:42.351Z,100375.80
2022-10-25T15:36:27.310Z,100375.20
2022-10-25T15:39:10.463Z,100387.00
2022-10-25T15:41:46.785Z,100388.00
2022-10-25T15:44:21.169Z,100388.60
2022-10-25T15:46:55.946Z,100392.20
2022-10-25T15:52:15.925Z,100399.00
2022-10-25T15:54:50.586Z,100404.80
2022-10-25T15:57:27.388Z,100412.40
2022-10-25T16:00:01.642Z,100414.40
2022-10-25T16:02:36.790Z,100414.60
2022-10-25T16:05:22.652Z,100417.80
2022-10-25T16:07:57.393Z,100419.20
2022-10-25T16:10:33.340Z,100421.40
2022-10-25T16:13:15.582Z,100420.80
2022-10-25T16:16:21.840Z,100426.40
2022-10-25T16:19:01.227Z,100427.00
2022-10-25T16:21:37.414Z,100431.60
2022-10-25T16:24:12.100Z,100437.00
2022-10-25T16:26:49.119Z,100441.40
2022-10-25T16:29:25.450Z,100443.00
2022-10-25T16:31:59.698Z,100447.20
2022-10-25T16:34:34.029Z,100457.00
2022-10-25T16:37:11.332Z,100454.40
2022-10-25T16:39:46.150Z,100465.40
2022-10-25T16:42:35.068Z,100458.40
2022-10-25T16:45:20.784Z,100458.40
2022-10-25T16:47:57.034Z,100456.40
2022-10-25T16:50:34.119Z,100455.80
2022-10-25T16:53:11.080Z,100460.80
2022-10-25T16:55:45.354Z,100459.00
2022-10-25T16:58:19.654Z,100465.40
2022-10-25T17:00:53.460Z,100457.60
2022-10-25T17:03:27.452Z,100465.60
2022-10-25T17:11:06.913Z,100467.40
2022-10-25T17:13:41.367Z,100473.40
2022-10-25T17:16:17.703Z,100474.40
2022-10-25T17:18:51.563Z,100473.20
2022-10-25T17:21:25.833Z,100472.80
2022-10-25T17:24:07.436Z,100476.20
2022-10-25T17:26:43.715Z,100476.80
2022-10-25T17:29:18.572Z,100476.00
2022-10-25T17:31:53.018Z,100482.20
2022-10-25T17:34:27.137Z,100482.40
2022-10-25T17:37:02.372Z,100483.40
2022-10-25T17:39:36.409Z,100486.40
2022-10-25T17:42:10.289Z,100490.60
2022-10-25T17:44:44.746Z,100494.00
2022-10-25T17:47:18.781Z,100493.40
2022-10-25T17:49:54.494Z,100495.20
2022-10-25T17:52:28.613Z,100491.20
2022-10-25T17:55:02.996Z,100488.20
2022-10-25T17:57:36.895Z,100492.40
2022-10-25T18:00:15.294Z,100485.20
2022-10-25T18:02:50.904Z,100490.60
2022-10-25T18:05:25.839Z,100492.20
2022-10-25T18:08:00.105Z,100492.60
2022-10-25T18:10:35.961Z,100491.60
2022-10-25T18:13:10.433Z,100488.60
2022-10-25T18:15:45.130Z,100491.40
2022-10-25T18:18:19.111Z,100491.80
2022-10-25T18:20:53.007Z,100495.00
2022-10-25T18:23:27.291Z,100489.20
2022-10-25T18:26:01.716Z,100485.60
2022-10-25T18:28:36.983Z,100487.40
2022-10-25T18:31:12.997Z,100493.20
2022-10-25T18:33:48.151Z,100499.20
2022-10-25T18:36:23.977Z,100500.20
2022-10-25T18:38:58.194Z,100508.80
2022-10-25T18:41:35.401Z,100503.40
2022-10-25T18:44:14.345Z,100504.60
2022-10-25T18:46:49.507Z,100503.80
2022-10-25T18:49:24.109Z,100500.60
2022-10-25T18:51:58.115Z,100502.80
2022-10-25T18:54:32.272Z,100508.80
2022-10-25T18:57:06.784Z,100507.60
2022-10-25T18:59:41.312Z,100505.80
2022-10-25T19:02:16.195Z,100507.40
2022-10-25T19:04:51.584Z,100508.60
2022-10-25T19:07:25.991Z,100513.60
2022-10-25T19:10:00.641Z,100515.20
2022-10-25T19:12:35.138Z,100521.00
2022-10-25T19:15:12.091Z,100520.80
2022-10-25T19:17:51.262Z,100525.40
2022-10-25T19:20:26.537Z,100529.40
2022-10-25T19:23:01.187Z,100529.20
2022-10-25T19:25:35.618Z,100531.00
2022-10-25T19:28:10.481Z,100533.80
2022-10-25T19:30:45.646Z,100533.60
2022-10-25T19:33:20.490Z,100532.80
2022-10-25T19:36:02.342Z,100528.20
2022-10-25T19:38:39.219Z,100534.60
2022-10-25T19:41:18.004Z,100541.00
2022-10-25T19:43:52.938Z,100542.40
2022-10-25T19:46:32.186Z,100545.80
2022-10-25T19:49:07.133Z,100548.40
2022-10-25T19:51:44.781Z,100542.00
2022-10-25T19:54:20.100Z,100546.80
2022-10-25T19:56:55.540Z,100555.40
2022-10-25T19:59:30.674Z,100557.80
2022-10-25T20:02:05.414Z,100559.00
2022-10-25T20:04:39.787Z,100557.80
2022-10-25T20:07:14.511Z,100559.20
2022-10-25T20:09:49.075Z,100563.80
2022-10-25T20:12:23.336Z,100562.80
2022-10-25T20:14:57.566Z,100561.20
2022-10-25T20:17:32.189Z,100566.80
2022-10-25T20:20:07.426Z,100567.60
2022-10-25T20:22:41.786Z,100562.80
2022-10-25T20:27:55.220Z,100569.40
2022-10-25T20:30:29.575Z,100577.40
2022-10-25T20:33:04.044Z,100577.80
2022-10-25T20:35:42.308Z,100579.60
2022-10-25T20:38:16.983Z,100575.80
2022-10-25T20:40:51.693Z,100581.00
2022-10-25T20:43:25.772Z,100582.60
2022-10-25T20:46:00.127Z,100591.20
2022-10-25T20:48:35.456Z,100597.80
2022-10-25T20:51:11.517Z,100591.60
2022-10-25T20:53:49.983Z,100593.80
2022-10-25T20:56:24.973Z,100594.40
2022-10-25T20:58:59.007Z,100594.60
2022-10-25T21:01:33.294Z,100592.20
2022-10-25T21:04:11.842Z,100591.60
2022-10-25T21:06:45.898Z,100594.00
2022-10-25T21:09:20.145Z,100595.60
2022-10-25T21:11:55.323Z,100600.00
2022-10-25T21:14:29.333Z,100605.00
2022-10-25T21:17:03.296Z,100601.20
2022-10-25T21:19:37.479Z,100606.60
2022-10-25T21:22:11.624Z,100600.80
2022-10-25T21:24:45.697Z,100601.00
2022-10-25T21:27:20.083Z,100601.40
2022-10-25T21:29:53.868Z,100597.60
2022-10-25T21:32:28.599Z,100602.80
2022-10-25T21:35:08.458Z,100604.00
2022-10-25T21:37:44.360Z,100601.00
2022-10-25T21:40:22.992Z,100597.20
2022-10-25T21:43:00.321Z,100599.80
2022-10-25T21:45:34.599Z,100601.00
2022-10-25T21:48:11.339Z,100601.60
2022-10-25T21:50:45.332Z,100607.40
2022-10-25T21:53:20.144Z,100600.80
2022-10-25T21:56:03.290Z,100605.60
2022-10-25T21:58:37.299Z,100610.20
2022-10-25T22:01:19.129Z,100607.60
2022-10-25T22:03:53.965Z,100608.60
2022-10-25T22:06:30.682Z,100607.60
2022-10-25T22:09:05.668Z,100609.60
2022-10-25T22:11:41.731Z,100608.80
2022-10-25T22:14:21.652Z,100615.40
2022-10-25T22:16:55.927Z,100613.60
2022-10-25T22:19:30.111Z,100615.20
2022-10-25T22:22:04.050Z,100612.00
2022-10-25T22:24:37.753Z,100616.00
2022-10-25T22:27:11.491Z,100613.00
2022-10-25T22:29:45.266Z,100612.20
2022-10-25T22:32:19.625Z,100613.20
2022-10-25T22:34:53.585Z,100610.20
2022-10-25T22:37:27.277Z,100610.40
2022-10-25T22:40:01.418Z,100613.40
2022-10-25T22:42:35.050Z,100613.80
2022-10-25T22:45:10.407Z,100618.80
2022-10-25T22:47:44.296Z,100615.40
2022-10-25T22:50:18.398Z,100619.60
2022-10-25T22:52:52.206Z,100619.40
2022-10-25T22:55:25.942Z,100622.80
2022-10-25T22:57:59.606Z,100627.80
2022-10-25T23:00:33.173Z,100617.80
2022-10-25T23:03:07.231Z,100622.00
2022-10-25T23:05:40.893Z,100618.20
2022-10-25T23:08:14.549Z,100622.40
2022-10-25T23:10:48.217Z,100621.20
2022-10-25T23:13:21.936Z,100623.00
2022-10-25T23:15:56.167Z,100624.80
2022-10-25T23:18:30.374Z,100621.80
2022-10-25T23:21:07.145Z,100625.40
2022-10-25T23:23:43.134Z,100631.80
2022-10-25T23:26:22.463Z,100637.40
2022-10-25T23:28:56.831Z,100638.20
2022-10-25T23:31:31.627Z,100643.60
2022-10-25T23:34:05.307Z,100646.00
2022-10-25T23:36:38.982Z,100641.40
2022-10-25T23:39:13.237Z,100642.80
2022-10-25T23:41:46.769Z,100640.80
2022-10-25T23:44:20.446Z,100644.40
2022-10-25T23:46:53.903Z,100640.60
2022-10-25T23:49:27.625Z,100639.40
2022-10-25T23:52:01.352Z,100643.00
2022-10-25T23:54:34.817Z,100640.20
2022-10-25T23:57:08.408Z,100639.00
2022-10-25T23:59:42.199Z,100643.00
